Time;durP1;ratioP1;P1;durP2;ratioP2;P2;SDS_P1;SDS_P2;PMS_P1;PMS_P2;Temp;Humidity;BMP_temperature;BMP_pressure;BME280_temperature;BME280_humidity;BME280_pressure;Samples;Min_cycle;Max_cycle;Signal;HPM_P1;HPM_P2
2022/05/06 00:03:27;;;;;;;4.53;2.90;;;6.60;99.90;;;;;;21154202;27;20096;-47
2022/05/06 00:13:31;;;;;;;3.40;2.20;;;6.60;99.90;;;;;;21212703;27;20035;-43
2022/05/06 00:23:33;;;;;;;3.92;2.35;;;6.70;99.90;;;;;;21212615;27;20039;-45
2022/05/06 00:33:36;;;;;;;3.53;2.42;;;6.60;99.90;;;;;;21144551;27;20035;-44
2022/05/06 00:43:40;;;;;;;4.45;2.92;;;6.60;99.90;;;;;;21110302;28;20044;-44
2022/05/06 00:53:44;;;;;;;4.65;2.88;;;6.60;99.90;;;;;;21126539;28;20035;-43
2022/05/06 01:03:48;;;;;;;5.93;3.13;;;6.60;99.90;;;;;;21126285;28;20617;-48
2022/05/06 01:13:55;;;;;;;4.85;3.40;;;6.60;99.90;;;;;;21125641;28;20044;-44
2022/05/06 01:24:02;;;;;;;5.30;3.38;;;6.60;99.90;;;;;;21133707;28;20032;-46
2022/05/06 01:34:06;;;;;;;6.07;4.38;;;6.60;99.90;;;;;;21141304;28;20097;-47
2022/05/06 01:44:09;;;;;;;5.95;4.20;;;6.50;99.90;;;;;;21140630;28;20051;-44
2022/05/06 01:54:14;;;;;;;6.00;4.40;;;6.50;99.90;;;;;;21123075;27;20572;-45
2022/05/06 02:14:42;;;;;;;6.63;4.97;;;6.40;99.90;;;;;;20978130;28;20064;-44
2022/05/06 02:25:09;;;;;;;7.78;4.82;;;6.30;99.90;;;;;;20958606;28;20072;-48
2022/05/06 02:35:37;;;;;;;9.38;5.90;;;6.30;99.90;;;;;;20953355;28;20139;-45
2022/05/06 02:45:41;;;;;;;8.68;6.13;;;6.30;99.90;;;;;;20939015;28;20040;-49
2022/05/06 02:55:45;;;;;;;9.65;6.72;;;6.40;99.90;;;;;;21013536;28;20094;-48
2022/05/06 03:05:49;;;;;;;8.40;6.65;;;6.40;99.90;;;;;;21049616;28;20156;-49
2022/05/06 03:15:55;;;;;;;10.70;5.90;;;6.50;99.90;;;;;;21048930;28;20043;-48
2022/05/06 03:25:58;;;;;;;9.40;6.80;;;6.40;99.90;;;;;;21067689;28;20474;-47
2022/05/06 03:36:02;;;;;;;8.45;6.50;;;6.50;99.90;;;;;;21064297;28;20089;-47
2022/05/06 03:46:09;;;;;;;7.30;5.03;;;6.50;99.90;;;;;;21120168;27;20046;-47
2022/05/06 03:56:12;;;;;;;7.80;5.03;;;6.50;99.90;;;;;;21192372;27;20120;-48
2022/05/06 04:06:19;;;;;;;6.85;4.68;;;6.50;99.90;;;;;;21169683;27;20035;-45
2022/05/06 04:16:28;;;;;;;6.55;4.65;;;6.40;99.90;;;;;;21213418;27;20081;-48
2022/05/06 04:26:35;;;;;;;6.85;4.65;;;6.50;99.90;;;;;;21155617;27;20035;-50
2022/05/06 04:36:40;;;;;;;4.60;3.50;;;6.50;99.90;;;;;;21127899;28;20392;-46
2022/05/06 04:46:46;;;;;;;3.95;2.78;;;6.50;99.90;;;;;;21110894;28;20051;-46
2022/05/06 04:56:53;;;;;;;4.95;3.33;;;6.50;99.90;;;;;;21133857;28;20040;-47
2022/05/06 05:07:04;;;;;;;6.28;3.05;;;6.60;99.90;;;;;;21146951;27;20035;-49
2022/05/06 05:17:11;;;;;;;5.25;3.20;;;6.60;99.90;;;;;;21228146;27;20065;-50
2022/05/06 05:27:19;;;;;;;4.55;3.40;;;6.70;99.90;;;;;;21205573;27;20421;-49
2022/05/06 05:37:23;;;;;;;6.45;3.53;;;6.70;99.90;;;;;;21217389;27;20497;-47
2022/05/06 05:57:48;;;;;;;;;;;6.70;99.90;;;;;;21224819;27;20143;-47
2022/05/06 06:07:52;;;;;;;3.70;3.13;;;6.70;99.90;;;;;;21222757;27;19911;-45
2022/05/06 06:17:57;;;;;;;5.43;2.45;;;6.70;99.90;;;;;;21174409;27;20051;-46
2022/05/06 06:28:04;;;;;;;4.05;2.63;;;6.70;99.90;;;;;;21164963;27;20076;-44
2022/05/06 06:38:06;;;;;;;2.60;2.28;;;6.80;99.90;;;;;;21136286;28;20089;-45
2022/05/06 06:48:13;;;;;;;2.50;1.77;;;6.90;99.90;;;;;;21068428;28;20550;-45
2022/05/06 06:58:26;;;;;;;2.42;1.80;;;7.00;99.90;;;;;;21067772;28;20040;-48
2022/05/06 07:18:51;;;;;;;1.90;1.30;;;7.20;99.90;;;;;;21064848;28;20404;-45
2022/05/06 07:28:54;;;;;;;2.10;1.60;;;7.20;99.90;;;;;;21065102;28;20040;-45
2022/05/06 07:38:57;;;;;;;1.58;1.08;;;7.40;99.90;;;;;;21063951;28;20032;-49
2022/05/06 07:49:00;;;;;;;1.40;1.05;;;7.50;99.90;;;;;;21063117;28;20040;-45
2022/05/06 07:59:04;;;;;;;1.73;1.40;;;7.60;99.90;;;;;;21062460;28;20043;-45
2022/05/06 08:09:07;;;;;;;2.08;1.58;;;7.70;99.90;;;;;;21062774;28;20085;-46
2022/05/06 08:19:09;;;;;;;2.53;1.77;;;7.70;99.90;;;;;;21061068;28;20095;-53
2022/05/06 08:29:13;;;;;;;2.70;1.70;;;7.80;99.90;;;;;;21060690;28;20052;-45
2022/05/06 08:39:16;;;;;;;2.33;1.60;;;7.80;99.90;;;;;;21060312;28;20089;-47
2022/05/06 08:59:40;;;;;;;2.67;1.67;;;8.00;99.90;;;;;;21211434;28;20057;-48
2022/05/06 09:09:44;;;;;;;1.95;1.65;;;8.30;99.90;;;;;;21146932;28;20032;-44
2022/05/06 09:19:46;;;;;;;3.70;1.48;;;8.30;99.90;;;;;;21126409;28;20061;-47
2022/05/06 09:29:51;;;;;;;2.40;1.70;;;8.50;99.90;;;;;;21125550;28;20101;-45
2022/05/06 09:40:02;;;;;;;1.85;1.33;;;8.60;99.90;;;;;;21125978;28;20092;-45
2022/05/06 09:50:07;;;;;;;1.50;1.30;;;8.70;99.90;;;;;;21141316;28;20093;-47
2022/05/06 10:00:10;;;;;;;1.35;0.90;;;9.10;99.90;;;;;;21143660;27;20059;-45
2022/05/06 10:10:20;;;;;;;1.90;0.98;;;9.40;99.90;;;;;;21139264;28;20032;-52
2022/05/06 10:20:35;;;;;;;1.23;1.00;;;9.50;99.90;;;;;;21138655;28;20540;-56
2022/05/06 10:41:02;;;;;;;0.95;0.52;;;10.10;99.90;;;;;;21136426;28;20488;-48
2022/05/06 10:51:27;;;;;;;0.80;0.52;;;9.80;99.90;;;;;;21153386;28;20099;-50
2022/05/06 11:01:30;;;;;;;0.95;0.77;;;9.90;99.90;;;;;;21214899;27;20064;-54
2022/05/06 11:11:34;;;;;;;1.52;0.82;;;10.10;99.90;;;;;;21156719;27;20080;-50
2022/05/06 11:21:36;;;;;;;0.98;0.68;;;9.90;99.90;;;;;;21217639;27;20549;-47
2022/05/06 11:31:46;;;;;;;0.52;0.40;;;9.90;99.90;;;;;;21217122;27;20064;-51
2022/05/06 11:41:51;;;;;;;3.90;0.40;;;10.00;99.90;;;;;;21158581;27;20047;-48
2022/05/06 11:51:56;;;;;;;0.63;0.57;;;9.70;99.90;;;;;;21204215;27;20471;-47
2022/05/06 12:02:07;;;;;;;0.40;0.40;;;10.20;99.90;;;;;;21215663;27;20031;-54
2022/05/06 12:12:10;;;;;;;0.40;0.40;;;11.50;99.90;;;;;;21175971;27;20031;-51
2022/05/06 12:22:20;;;;;;;1.38;0.40;;;11.30;99.90;;;;;;21128615;28;20069;-54
2022/05/06 12:32:22;;;;;;;0.57;0.40;;;11.60;99.90;;;;;;21128209;28;20039;-55
2022/05/06 12:42:26;;;;;;;0.95;0.65;;;11.30;99.90;;;;;;21127426;28;20044;-55
2022/05/06 12:52:31;;;;;;;0.70;0.50;;;10.90;99.90;;;;;;21153067;28;20118;-46
2022/05/06 13:02:33;;;;;;;0.85;0.73;;;10.90;99.90;;;;;;21126990;28;20036;-48
2022/05/06 13:12:36;;;;;;;1.35;0.60;;;10.90;99.90;;;;;;21126684;28;20039;-50
2022/05/06 13:22:39;;;;;;;1.23;0.50;;;10.80;99.90;;;;;;21178163;27;20032;-47
2022/05/06 13:32:43;;;;;;;0.55;0.50;;;11.00;99.90;;;;;;21141896;28;20028;-52
2022/05/06 13:42:45;;;;;;;1.00;0.70;;;11.00;99.90;;;;;;21141614;28;20043;-50
2022/05/06 13:52:50;;;;;;;1.15;0.77;;;10.80;99.90;;;;;;21140632;28;20404;-49
2022/05/06 14:02:52;;;;;;;1.42;0.80;;;10.80;99.90;;;;;;21139050;28;20088;-57
2022/05/06 14:12:55;;;;;;;2.35;1.40;;;11.10;99.90;;;;;;21139011;28;20392;-58
2022/05/06 14:22:57;;;;;;;0.85;0.70;;;11.20;99.90;;;;;;21138234;28;20115;-59
2022/05/06 14:33:00;;;;;;;1.20;0.90;;;12.10;99.90;;;;;;21136683;28;20035;-52
2022/05/06 14:43:03;;;;;;;0.70;0.50;;;12.30;99.90;;;;;;21136002;28;20084;-52
2022/05/06 14:53:06;;;;;;;0.40;0.30;;;12.80;99.90;;;;;;21135194;28;20159;-60
2022/05/06 15:03:08;;;;;;;0.60;0.50;;;12.70;99.90;;;;;;21134515;28;20036;-51
2022/05/06 15:13:12;;;;;;;0.30;0.25;;;12.20;99.90;;;;;;21180224;27;20043;-53
2022/05/06 15:23:18;;;;;;;0.60;0.60;;;12.20;99.90;;;;;;21217489;27;20449;-53
2022/05/06 15:33:21;;;;;;;0.85;0.60;;;11.80;99.90;;;;;;21216952;27;20491;-53
2022/05/06 15:43:24;;;;;;;1.42;1.00;;;11.60;99.90;;;;;;21143994;28;20040;-60
2022/05/06 15:53:32;;;;;;;0.80;0.65;;;11.60;99.90;;;;;;21130713;28;20039;-51
2022/05/06 16:03:35;;;;;;;0.68;0.40;;;11.80;99.90;;;;;;21127501;28;20035;-51
2022/05/06 16:13:39;;;;;;;3.53;2.90;;;12.00;99.90;;;;;;21112198;28;20092;-53
2022/05/06 16:23:41;;;;;;;3.00;2.50;;;12.20;99.90;;;;;;21194707;27;20496;-61
2022/05/06 16:44:05;;;;;;;3.80;2.70;;;11.30;99.90;;;;;;21127141;28;20043;-53
2022/05/06 16:54:09;;;;;;;4.00;3.03;;;10.60;99.90;;;;;;21119714;28;20067;-53
2022/05/06 17:04:12;;;;;;;3.72;2.92;;;10.50;99.90;;;;;;21144087;28;20036;-52
2022/05/06 17:14:15;;;;;;;4.55;3.53;;;10.50;99.90;;;;;;21143487;28;20085;-52
2022/05/06 17:24:20;;;;;;;4.45;3.58;;;10.50;99.90;;;;;;21142679;28;20036;-51
2022/05/06 17:34:24;;;;;;;368.92;22.05;;;10.40;99.90;;;;;;21173633;27;20034;-50
2022/05/06 17:44:27;;;;;;;229.25;14.70;;;10.40;99.90;;;;;;21129485;28;20088;-52
2022/05/06 17:54:30;;;;;;;480.05;33.00;;;10.10;99.90;;;;;;21140701;28;20039;-54
2022/05/06 18:04:33;;;;;;;463.25;25.38;;;9.90;99.90;;;;;;21194245;27;20061;-49
2022/05/06 18:14:36;;;;;;;295.08;16.38;;;9.50;99.90;;;;;;21223041;27;20111;-60
2022/05/06 18:24:38;;;;;;;409.30;24.05;;;9.30;99.90;;;;;;21222566;27;20060;-52
2022/05/06 18:34:42;;;;;;;342.98;18.58;;;9.00;99.90;;;;;;21149624;28;20152;-52
2022/05/06 18:44:47;;;;;;;396.05;20.92;;;8.70;99.90;;;;;;21136604;28;20507;-51
2022/05/06 18:54:49;;;;;;;282.23;16.70;;;8.60;99.90;;;;;;21134012;28;20044;-52
2022/05/06 19:04:53;;;;;;;7.32;4.28;;;8.40;99.90;;;;;;21134345;28;20031;-50
2022/05/06 19:14:56;;;;;;;12.68;3.50;;;8.40;99.90;;;;;;21133257;28;20084;-60
2022/05/06 19:25:16;;;;;;;2.90;1.70;;;8.30;99.90;;;;;;21152256;28;20036;-51
2022/05/06 19:35:36;;;;;;;3.03;1.30;;;8.30;99.90;;;;;;21150775;28;20376;-60
2022/05/06 19:45:56;;;;;;;1.93;1.20;;;8.40;99.90;;;;;;21149202;28;20044;-60
2022/05/06 19:55:59;;;;;;;5.97;4.60;;;8.50;99.90;;;;;;21131116;28;20388;-49
2022/05/06 20:06:02;;;;;;;2.78;2.03;;;8.40;99.90;;;;;;21192642;27;20098;-61
2022/05/06 20:16:05;;;;;;;2.83;1.48;;;8.30;99.90;;;;;;21214965;27;20115;-60
2022/05/06 20:26:08;;;;;;;3.13;1.63;;;8.30;99.90;;;;;;21211718;27;20035;-60
2022/05/06 20:36:11;;;;;;;4.22;2.97;;;8.30;99.90;;;;;;21143004;28;20035;-50
2022/05/06 20:46:14;;;;;;;6.75;4.22;;;8.30;99.90;;;;;;21122548;28;20104;-52
2022/05/06 20:56:17;;;;;;;6.45;4.20;;;8.20;99.90;;;;;;21126442;28;20036;-59
2022/05/06 21:06:20;;;;;;;7.60;4.78;;;8.10;99.90;;;;;;21124888;28;20055;-49
2022/05/06 21:16:22;;;;;;;4.95;3.58;;;8.10;99.90;;;;;;21126175;28;20089;-60
2022/05/06 21:26:26;;;;;;;3.13;2.20;;;8.10;99.90;;;;;;21125710;28;20104;-58
2022/05/06 21:36:29;;;;;;;4.10;1.85;;;8.00;99.90;;;;;;21128588;28;20357;-52
2022/05/06 21:46:32;;;;;;;2.95;1.70;;;7.90;99.90;;;;;;21141093;28;20576;-49
2022/05/06 21:56:35;;;;;;;2.13;1.42;;;7.80;99.90;;;;;;21140183;28;20044;-59
2022/05/06 22:06:42;;;;;;;2.17;1.70;;;7.80;99.90;;;;;;21139699;28;20039;-51
2022/05/06 22:16:45;;;;;;;2.20;1.33;;;7.70;99.90;;;;;;21150589;27;20035;-49
2022/05/06 22:26:49;;;;;;;1.98;1.25;;;7.70;99.90;;;;;;21217268;27;20039;-52
2022/05/06 22:36:51;;;;;;;2.20;1.60;;;7.70;99.90;;;;;;21137129;28;20037;-58
2022/05/06 22:46:54;;;;;;;2.10;1.60;;;7.70;99.90;;;;;;21135798;28;20404;-50
2022/05/06 22:56:56;;;;;;;2.05;1.42;;;7.60;99.90;;;;;;21135450;28;20047;-51
2022/05/06 23:06:59;;;;;;;1.90;1.58;;;7.60;99.90;;;;;;21134722;28;20036;-50
2022/05/06 23:17:04;;;;;;;5.55;2.00;;;7.50;99.90;;;;;;21133541;28;20035;-59
2022/05/06 23:27:06;;;;;;;2.60;1.90;;;7.40;99.90;;;;;;21132876;27;20088;-59
2022/05/06 23:47:30;;;;;;;2.25;1.73;;;7.20;99.90;;;;;;21174277;27;20100;-51
2022/05/06 23:57:32;;;;;;;2.78;2.05;;;7.20;99.90;;;;;;21130498;28;20031;-52
